Accueil
METAR-TAF:

METAR-TAF

Aéroports :

Romorantin, France

Pruniers

latitude: 47-19N, longitude: 001-41E, altitude: 85 m

Observation

Le bulletin a été fait il y a 32 minutes, à 02:00 UTC
Vent 7 kt de sud-ouest, variant entre sud et ouest
Température 8°C
Humidité 87%
Pression 1008 hPa
Visibilité 10 km ou plus
Nuages fragmentés à une hauteur de 1500 ft
Nuages fragmentés à une hauteur de 2000 ft
Nuages fragmentés à une hauteur de 2700 ft

METAR: LFYR 010200Z AUTO 22007KT 190V270 9999 BKN015 BKN020 BKN027 08/06 Q1008

Heure: 04:32 (02:32 UTC)


TAF: absent

Observations et prévisions météorologiques de plus de 4000 aéroports (messages METAR et TAF).

Les stations disponibles sont représentées par des disques jaunes et rouges sur la carte.

Passer la souris dessus pour voir le nom de la station.

Cliquer dessus pour voir les observations et prévisions météorologiques.

Pour changer de carte: cliquez sur les boutons verts avec une croix noire pour zoomer, sur le bouton vert avec un tiret pour effectuer un zoom arrière, ou sur les flèches vertes pour les cartes adjacentes.


METAR-TAF: